Time;durP1;ratioP1;P1;durP2;ratioP2;P2;SDS_P1;SDS_P2;PMS_P1;PMS_P2;Temp;Humidity;BMP_temperature;BMP_pressure;BME280_temperature;BME280_humidity;BME280_pressure;Samples;Min_cycle;Max_cycle;Signal;HPM_P1;HPM_P2
2021/08/16 06:53:45;;;;;;;21.20;8.93;;;18.40;99.90;;;;;;4758975;26;20484;-75
2021/08/16 06:56:12;;;;;;;14.20;9.60;;;18.60;99.90;;;;;;4982317;28;20943;-74
2021/08/16 06:58:48;;;;;;;14.80;9.50;;;18.80;99.90;;;;;;4982893;28;20458;-76
2021/08/16 07:01:20;;;;;;;19.00;9.40;;;18.90;99.90;;;;;;4976993;28;20828;-76
2021/08/16 07:03:49;;;;;;;26.03;11.43;;;18.90;99.90;;;;;;4984142;28;20452;-74
2021/08/16 07:06:16;;;;;;;21.80;10.93;;;19.00;99.90;;;;;;4976447;28;20560;-75
2021/08/16 07:08:44;;;;;;;22.83;10.60;;;19.00;99.90;;;;;;4981022;28;20559;-78
2021/08/16 07:11:12;;;;;;;14.93;8.63;;;18.90;99.90;;;;;;4980226;28;20515;-77
2021/08/16 07:13:39;;;;;;;18.60;10.43;;;19.00;99.90;;;;;;4981318;28;21003;-76
2021/08/16 07:16:07;;;;;;;18.03;8.73;;;19.10;99.90;;;;;;4984175;28;20446;-74
2021/08/16 07:18:37;;;;;;;16.77;9.93;;;19.30;99.90;;;;;;4973652;28;20468;-75
2021/08/16 07:21:05;;;;;;;23.60;10.77;;;19.40;99.90;;;;;;4981579;28;20453;-78
2021/08/16 07:23:33;;;;;;;17.83;10.53;;;19.40;99.90;;;;;;4974049;28;20452;-76
2021/08/16 07:26:03;;;;;;;19.03;9.20;;;19.40;99.90;;;;;;4971339;28;20454;-77
2021/08/16 07:28:31;;;;;;;24.80;11.00;;;19.30;99.90;;;;;;4972395;28;20440;-75
2021/08/16 07:30:58;;;;;;;19.70;10.77;;;19.30;99.90;;;;;;4982917;28;20575;-77
2021/08/16 07:33:26;;;;;;;15.27;9.60;;;19.30;99.90;;;;;;4981880;28;20958;-75
2021/08/16 07:35:53;;;;;;;17.30;8.53;;;19.30;99.90;;;;;;4985617;28;20822;-75
2021/08/16 07:38:20;;;;;;;14.50;10.10;;;19.40;99.90;;;;;;4978170;28;20456;-76
2021/08/16 07:40:48;;;;;;;16.63;9.77;;;19.60;99.90;;;;;;4989501;28;20449;-75
2021/08/16 07:43:18;;;;;;;16.53;9.37;;;19.60;99.90;;;;;;4979952;28;20481;-74
2021/08/16 07:45:46;;;;;;;17.23;9.67;;;19.50;99.90;;;;;;4972881;28;20504;-78
2021/08/16 07:48:13;;;;;;;14.60;9.80;;;19.60;99.90;;;;;;4980261;28;20465;-74
2021/08/16 07:50:40;;;;;;;15.73;9.40;;;19.70;99.90;;;;;;4977519;28;20835;-77
2021/08/16 07:53:08;;;;;;;16.43;9.17;;;19.70;99.90;;;;;;4974591;28;20458;-74
2021/08/16 07:55:39;;;;;;;16.77;9.33;;;19.60;99.90;;;;;;4970545;28;20446;-77
2021/08/16 07:58:06;;;;;;;21.13;7.90;;;19.60;99.90;;;;;;4978285;28;20488;-73
2021/08/16 08:00:35;;;;;;;15.30;9.20;;;19.70;99.90;;;;;;4976741;28;20450;-74
2021/08/16 08:03:02;;;;;;;16.80;8.90;;;19.50;99.90;;;;;;4986130;28;20841;-76
2021/08/16 08:05:29;;;;;;;20.00;10.50;;;19.50;99.90;;;;;;4982770;28;20953;-75
2021/08/16 08:07:56;;;;;;;17.93;10.30;;;19.40;99.90;;;;;;4983493;28;20457;-77
2021/08/16 08:10:23;;;;;;;25.43;10.37;;;19.30;99.90;;;;;;4987320;28;20952;-77
2021/08/16 08:12:51;;;;;;;19.23;10.60;;;19.30;99.90;;;;;;4982236;28;20482;-77
2021/08/16 08:15:18;;;;;;;17.87;10.30;;;19.30;99.90;;;;;;4994965;28;20445;-73
2021/08/16 08:17:48;;;;;;;21.73;10.90;;;19.20;99.90;;;;;;4976503;28;20493;-73
2021/08/16 08:20:15;;;;;;;19.10;10.90;;;19.10;99.90;;;;;;4976391;28;20525;-73
2021/08/16 08:22:43;;;;;;;19.23;11.20;;;19.00;99.90;;;;;;4983498;28;20965;-76
2021/08/16 08:25:11;;;;;;;20.13;10.60;;;18.90;99.90;;;;;;4968851;28;20944;-78
2021/08/16 08:27:38;;;;;;;15.97;9.43;;;18.90;99.90;;;;;;4986561;28;20965;-73
2021/08/16 08:30:07;;;;;;;15.23;10.80;;;18.80;99.90;;;;;;4975540;28;20446;-75
2021/08/16 08:32:44;;;;;;;17.63;11.23;;;18.90;99.90;;;;;;4969426;28;20852;-75
2021/08/16 08:35:13;;;;;;;23.97;13.60;;;18.80;99.90;;;;;;4957599;28;20531;-76
2021/08/16 08:37:40;;;;;;;19.37;11.10;;;18.80;99.90;;;;;;4975847;28;20840;-73
2021/08/16 08:40:08;;;;;;;20.37;13.93;;;18.70;99.90;;;;;;4982841;28;20454;-76
2021/08/16 08:42:37;;;;;;;26.47;15.30;;;18.70;99.90;;;;;;4984481;28;20460;-74
2021/08/16 08:45:06;;;;;;;26.93;13.30;;;18.60;99.90;;;;;;4973222;28;20454;-76
2021/08/16 08:47:34;;;;;;;25.90;13.80;;;18.50;99.90;;;;;;4974284;28;20962;-74
2021/08/16 08:50:02;;;;;;;26.17;14.70;;;18.40;99.90;;;;;;4973728;28;20445;-74
2021/08/16 08:52:36;;;;;;;26.33;14.13;;;18.40;99.90;;;;;;4979918;28;20497;-76
2021/08/16 08:55:04;;;;;;;19.13;14.60;;;18.60;99.90;;;;;;4966067;28;20457;-74
2021/08/16 08:57:31;;;;;;;17.20;13.40;;;18.60;99.90;;;;;;4974644;28;20487;-74
2021/08/16 08:59:59;;;;;;;21.83;13.97;;;18.50;99.90;;;;;;4978099;28;20472;-73
2021/08/16 09:02:26;;;;;;;22.30;13.57;;;18.50;99.90;;;;;;4974695;28;20453;-75
2021/08/16 09:04:55;;;;;;;20.77;14.07;;;18.30;99.90;;;;;;4979643;28;20452;-75
2021/08/16 09:07:33;;;;;;;21.53;15.10;;;18.20;99.90;;;;;;4983247;28;20480;-75
2021/08/16 09:10:04;;;;;;;19.80;14.50;;;18.00;99.90;;;;;;4978607;28;20810;-80
2021/08/16 09:12:34;;;;;;;22.13;16.00;;;17.90;99.90;;;;;;4980529;28;20504;-75
2021/08/16 09:15:01;;;;;;;20.80;13.60;;;17.90;99.90;;;;;;4984687;28;20444;-76
2021/08/16 09:17:33;;;;;;;15.35;11.88;;;17.70;99.90;;;;;;4979173;28;20324;-75
2021/08/16 09:20:02;;;;;;;18.13;11.37;;;17.60;99.90;;;;;;4979686;28;20210;-75
2021/08/16 09:22:34;;;;;;;11.57;8.20;;;17.50;99.90;;;;;;4972172;28;20458;-76
2021/08/16 09:25:05;;;;;;;10.30;8.07;;;17.30;99.90;;;;;;4968527;28;20232;-76
2021/08/16 09:27:34;;;;;;;9.52;7.28;;;17.30;99.90;;;;;;4967427;28;20267;-76
2021/08/16 09:30:01;;;;;;;9.50;5.93;;;17.50;99.90;;;;;;4968867;28;20671;-76
2021/08/16 09:32:33;;;;;;;10.53;6.17;;;17.60;99.90;;;;;;4975882;28;21017;-76
2021/08/16 09:35:11;;;;;;;9.00;5.68;;;17.60;99.90;;;;;;4975846;28;20804;-76
2021/08/16 09:37:38;;;;;;;5.80;4.43;;;17.80;99.90;;;;;;4976190;28;20228;-76
2021/08/16 09:40:11;;;;;;;7.50;5.53;;;18.10;99.90;;;;;;4976731;28;20799;-77
2021/08/16 09:42:46;;;;;;;6.47;5.17;;;18.20;99.90;;;;;;4972298;28;20440;-77
2021/08/16 09:45:15;;;;;;;6.47;5.50;;;18.30;99.90;;;;;;4976300;28;20456;-77
2021/08/16 09:47:45;;;;;;;6.07;5.03;;;18.30;99.90;;;;;;4964752;28;20469;-75
2021/08/16 09:50:13;;;;;;;4.40;4.00;;;18.30;99.90;;;;;;4969401;28;20921;-77
2021/08/16 09:52:42;;;;;;;7.90;3.80;;;18.30;99.90;;;;;;4980255;28;20488;-77
2021/08/16 09:55:12;;;;;;;5.90;3.93;;;18.10;99.90;;;;;;4963437;28;20885;-76
2021/08/16 09:57:40;;;;;;;7.13;4.83;;;18.00;99.90;;;;;;4974050;28;20468;-75
2021/08/16 10:00:09;;;;;;;7.27;4.97;;;18.00;99.90;;;;;;4971834;28;20807;-76
2021/08/16 10:02:37;;;;;;;5.63;5.00;;;17.90;99.90;;;;;;4979880;28;20442;-76
2021/08/16 10:05:05;;;;;;;6.50;4.60;;;17.80;99.90;;;;;;4978288;28;20476;-76
2021/08/16 10:07:35;;;;;;;5.43;4.97;;;17.80;99.90;;;;;;4970477;28;20830;-76
2021/08/16 10:10:03;;;;;;;7.20;4.43;;;17.60;99.90;;;;;;4975084;28;20457;-76
2021/08/16 10:12:33;;;;;;;9.57;4.60;;;17.60;99.90;;;;;;4978481;28;20574;-76
2021/08/16 10:15:02;;;;;;;7.88;4.72;;;17.40;99.90;;;;;;4979082;28;20445;-76
2021/08/16 10:17:35;;;;;;;5.57;3.97;;;17.50;99.90;;;;;;4967485;28;20308;-76
2021/08/16 10:20:03;;;;;;;8.20;4.80;;;17.50;99.90;;;;;;4975199;28;21126;-76
2021/08/16 10:22:36;;;;;;;7.57;3.92;;;17.50;99.90;;;;;;4974118;28;20441;-77
2021/08/16 10:25:13;;;;;;;5.45;4.85;;;17.50;99.90;;;;;;4984500;28;20211;-76
2021/08/16 10:27:41;;;;;;;4.18;3.83;;;17.50;99.90;;;;;;4969044;28;20231;-76
2021/08/16 10:30:11;;;;;;;5.90;4.80;;;17.50;99.90;;;;;;4976920;28;20231;-77
2021/08/16 10:32:40;;;;;;;8.25;4.40;;;17.50;99.90;;;;;;4977180;28;20275;-76
2021/08/16 10:35:09;;;;;;;4.65;3.85;;;17.40;99.90;;;;;;4974790;28;20202;-77
2021/08/16 10:37:38;;;;;;;4.40;4.00;;;17.40;99.90;;;;;;4980292;28;20228;-76
2021/08/16 10:40:18;;;;;;;5.30;4.80;;;17.50;99.90;;;;;;4982233;28;20509;-76
2021/08/16 10:42:46;;;;;;;5.70;3.60;;;17.60;99.90;;;;;;4973922;28;20459;-76
2021/08/16 10:45:28;;;;;;;6.00;4.30;;;17.70;99.90;;;;;;4980972;28;20194;-76
2021/08/16 10:48:03;;;;;;;4.93;3.47;;;17.70;99.90;;;;;;4978200;28;20472;-76
2021/08/16 10:50:30;;;;;;;5.13;3.95;;;17.70;99.90;;;;;;4978141;28;20455;-76
2021/08/16 10:53:02;;;;;;;6.03;4.03;;;17.70;99.90;;;;;;4978601;28;20233;-77
2021/08/16 10:55:32;;;;;;;8.85;4.95;;;17.60;99.90;;;;;;4974045;28;20251;-76
2021/08/16 10:58:00;;;;;;;5.93;3.50;;;17.50;99.90;;;;;;4974729;28;20220;-75
2021/08/16 11:00:27;;;;;;;4.40;3.63;;;17.50;99.90;;;;;;4976471;28;20227;-77
2021/08/16 11:02:55;;;;;;;5.88;4.15;;;17.60;99.90;;;;;;4976862;28;20195;-78
2021/08/16 11:05:36;;;;;;;9.68;4.80;;;17.60;99.90;;;;;;4975080;28;20213;-78
2021/08/16 11:08:04;;;;;;;12.50;4.43;;;17.70;99.90;;;;;;4987471;28;20228;-77
2021/08/16 11:10:39;;;;;;;6.00;4.30;;;17.80;99.90;;;;;;4979006;28;20208;-77
2021/08/16 11:13:17;;;;;;;5.20;3.95;;;17.80;99.90;;;;;;4979853;28;20490;-76
2021/08/16 11:15:44;;;;;;;4.35;3.50;;;17.80;99.90;;;;;;4981388;28;20205;-77
2021/08/16 11:18:14;;;;;;;9.40;4.00;;;17.90;99.90;;;;;;4980207;28;20312;-77
2021/08/16 11:20:41;;;;;;;6.68;4.05;;;17.90;99.90;;;;;;4980978;28;20452;-77
2021/08/16 11:23:08;;;;;;;7.57;4.20;;;18.00;99.90;;;;;;4966333;28;20200;-78
2021/08/16 11:25:36;;;;;;;6.72;3.90;;;18.10;99.90;;;;;;4969088;28;20790;-77
2021/08/16 11:28:04;;;;;;;9.23;3.60;;;18.30;99.90;;;;;;4978681;28;20232;-78
2021/08/16 11:30:33;;;;;;;6.17;4.00;;;18.20;99.90;;;;;;4979513;28;20461;-77
2021/08/16 11:33:00;;;;;;;6.60;4.70;;;18.10;99.90;;;;;;4975129;28;20487;-77
2021/08/16 11:35:27;;;;;;;7.60;3.13;;;18.20;99.90;;;;;;4975729;28;20441;-77
2021/08/16 11:37:55;;;;;;;8.17;3.10;;;17.90;99.90;;;;;;4977773;28;20472;-76
2021/08/16 11:40:22;;;;;;;6.38;2.28;;;17.70;99.90;;;;;;4972460;28;20450;-77
2021/08/16 11:42:49;;;;;;;3.90;2.97;;;17.50;99.90;;;;;;4980314;28;20211;-76
2021/08/16 11:45:19;;;;;;;3.90;2.53;;;17.50;99.90;;;;;;4976784;28;20677;-77
2021/08/16 11:47:50;;;;;;;4.27;2.20;;;17.40;99.90;;;;;;4982672;28;20303;-77
2021/08/16 11:50:19;;;;;;;6.97;2.03;;;17.30;99.90;;;;;;4976624;28;20468;-76
2021/08/16 11:52:50;;;;;;;3.97;2.47;;;17.30;99.90;;;;;;4982236;28;20227;-77
2021/08/16 11:55:25;;;;;;;4.50;2.00;;;17.10;99.90;;;;;;4971406;28;20297;-77
2021/08/16 11:57:53;;;;;;;4.53;2.03;;;16.90;99.90;;;;;;4977996;28;20293;-77
2021/08/16 12:00:25;;;;;;;7.70;3.13;;;17.00;99.90;;;;;;4978109;28;20244;-77
2021/08/16 12:02:57;;;;;;;6.00;2.90;;;17.00;99.90;;;;;;4981503;28;20201;-77
2021/08/16 12:05:25;;;;;;;19.80;3.38;;;17.00;99.90;;;;;;4978504;28;20204;-78
2021/08/16 12:07:52;;;;;;;5.25;3.28;;;17.00;99.90;;;;;;4984003;28;20226;-76
2021/08/16 12:10:22;;;;;;;5.03;2.60;;;16.90;99.90;;;;;;4977612;28;20557;-76
2021/08/16 12:12:59;;;;;;;5.90;2.65;;;16.90;99.90;;;;;;4975733;28;20221;-77
2021/08/16 12:15:27;;;;;;;6.25;3.17;;;16.90;99.90;;;;;;4976711;28;20203;-77
2021/08/16 12:18:06;;;;;;;5.18;3.55;;;17.00;99.90;;;;;;4969816;28;20232;-75
2021/08/16 12:20:45;;;;;;;4.47;2.55;;;17.10;99.90;;;;;;4965315;28;20210;-75
2021/08/16 12:23:24;;;;;;;7.18;4.18;;;17.20;99.90;;;;;;4967470;28;20200;-74
2021/08/16 12:25:51;;;;;;;8.37;3.37;;;17.30;99.90;;;;;;4968471;28;20210;-75
2021/08/16 12:28:19;;;;;;;5.25;2.80;;;17.40;99.90;;;;;;4971729;28;20821;-76
2021/08/16 12:30:46;;;;;;;7.28;4.53;;;17.50;99.90;;;;;;4973610;28;20204;-76
2021/08/16 12:33:17;;;;;;;4.15;2.90;;;17.50;99.90;;;;;;4969266;28;20228;-76
2021/08/16 12:35:56;;;;;;;4.77;2.70;;;17.60;99.90;;;;;;4969047;28;20213;-79
2021/08/16 12:38:27;;;;;;;5.10;3.30;;;17.40;99.90;;;;;;4969579;28;20457;-78
2021/08/16 12:41:06;;;;;;;14.45;4.55;;;17.50;99.90;;;;;;4960546;28;20511;-75
2021/08/16 12:43:38;;;;;;;5.88;4.07;;;17.60;99.90;;;;;;4961092;28;20207;-76
2021/08/16 12:46:05;;;;;;;8.65;3.72;;;17.60;99.90;;;;;;4964777;28;20201;-76
2021/08/16 12:48:41;;;;;;;12.60;4.25;;;17.60;99.90;;;;;;4981037;28;20205;-75
2021/08/16 12:51:08;;;;;;;7.53;2.97;;;17.70;99.90;;;;;;4966696;28;20210;-77
2021/08/16 12:53:37;;;;;;;6.95;3.28;;;17.80;99.90;;;;;;4971822;28;20486;-76
2021/08/16 12:56:04;;;;;;;8.63;2.50;;;17.80;99.90;;;;;;4958962;28;20678;-76
2021/08/16 12:58:32;;;;;;;4.60;2.70;;;17.90;99.90;;;;;;4967940;28;20500;-76
2021/08/16 13:00:59;;;;;;;9.67;2.67;;;18.10;99.90;;;;;;4975438;28;20459;-77
2021/08/16 13:03:27;;;;;;;6.50;2.67;;;18.00;99.90;;;;;;4974962;28;20457;-77
2021/08/16 13:05:55;;;;;;;6.30;4.30;;;17.90;99.90;;;;;;4975233;28;20549;-75
2021/08/16 13:08:22;;;;;;;10.00;3.43;;;17.90;99.90;;;;;;4975731;28;20539;-79
2021/08/16 13:10:50;;;;;;;6.43;2.70;;;18.00;99.90;;;;;;4982967;28;20451;-77
2021/08/16 13:13:17;;;;;;;7.95;2.20;;;18.10;99.90;;;;;;4985715;28;20503;-77
2021/08/16 13:15:47;;;;;;;10.70;3.40;;;18.00;99.90;;;;;;4975129;28;20268;-77
2021/08/16 13:18:14;;;;;;;5.20;2.53;;;18.10;99.90;;;;;;4965683;28;20485;-77
2021/08/16 13:20:41;;;;;;;4.67;2.30;;;18.10;99.90;;;;;;4971640;28;20787;-78
2021/08/16 13:23:10;;;;;;;9.00;4.03;;;18.10;99.90;;;;;;4966742;28;20456;-77
2021/08/16 13:25:38;;;;;;;3.50;2.33;;;18.00;99.90;;;;;;4964459;28;20450;-75
2021/08/16 13:28:05;;;;;;;7.13;1.95;;;18.00;99.90;;;;;;4979950;28;20812;-79
2021/08/16 13:30:33;;;;;;;11.40;3.13;;;18.00;99.90;;;;;;4981896;28;20202;-77
2021/08/16 13:33:00;;;;;;;6.80;3.23;;;17.90;99.90;;;;;;4987687;28;20230;-77
2021/08/16 13:35:27;;;;;;;5.80;2.70;;;17.90;99.90;;;;;;4966993;28;20785;-78
2021/08/16 13:37:54;;;;;;;5.17;2.93;;;18.00;99.90;;;;;;4976661;28;20477;-76
2021/08/16 13:40:23;;;;;;;5.30;2.65;;;17.90;99.90;;;;;;4976053;28;20503;-78
2021/08/16 13:42:50;;;;;;;8.87;3.23;;;17.60;99.90;;;;;;4977164;28;20628;-76
2021/08/16 13:45:19;;;;;;;5.88;2.80;;;17.60;99.90;;;;;;4975721;28;20841;-76
2021/08/16 13:47:46;;;;;;;7.40;3.13;;;17.50;99.90;;;;;;4980993;28;20225;-74
2021/08/16 13:50:13;;;;;;;14.63;3.35;;;17.40;99.90;;;;;;4974727;28;20205;-74
2021/08/16 13:52:42;;;;;;;13.18;3.72;;;17.40;99.90;;;;;;4971528;28;20691;-79
2021/08/16 13:55:11;;;;;;;8.77;3.60;;;17.30;99.90;;;;;;4964722;28;20654;-76
2021/08/16 13:57:39;;;;;;;8.68;3.15;;;17.30;99.90;;;;;;4975198;28;20235;-76
2021/08/16 14:00:09;;;;;;;6.13;2.35;;;17.30;99.90;;;;;;4975293;28;20203;-76
2021/08/16 14:02:36;;;;;;;5.57;2.70;;;17.40;99.90;;;;;;4967517;28;20292;-76
2021/08/16 14:05:03;;;;;;;19.45;5.72;;;17.30;99.90;;;;;;4984427;28;20651;-74
2021/08/16 14:07:31;;;;;;;4.95;2.60;;;17.40;99.90;;;;;;4975939;28;20244;-78
2021/08/16 14:09:58;;;;;;;12.90;2.92;;;17.40;99.90;;;;;;4977403;28;20208;-75
2021/08/16 14:12:25;;;;;;;5.57;2.55;;;17.50;99.90;;;;;;4977516;28;20659;-74
2021/08/16 14:14:53;;;;;;;9.60;2.67;;;17.50;99.90;;;;;;4979555;28;20698;-76
2021/08/16 14:17:21;;;;;;;11.33;3.10;;;17.60;99.90;;;;;;4982314;28;20482;-76
2021/08/16 14:19:48;;;;;;;7.15;2.67;;;17.50;99.90;;;;;;4980983;28;20847;-75
2021/08/16 14:22:15;;;;;;;6.50;2.60;;;17.60;99.90;;;;;;4978856;28;20213;-76
2021/08/16 14:24:42;;;;;;;5.60;3.23;;;17.60;99.90;;;;;;4979007;28;20446;-76
2021/08/16 14:27:10;;;;;;;11.30;2.93;;;17.50;99.90;;;;;;4981269;28;20478;-76
2021/08/16 14:29:37;;;;;;;6.50;2.80;;;17.40;99.90;;;;;;4983538;28;20471;-74
2021/08/16 14:32:10;;;;;;;6.03;3.03;;;17.30;99.90;;;;;;4974976;28;20940;-76
2021/08/16 14:34:38;;;;;;;10.30;3.08;;;17.30;99.90;;;;;;4974494;28;20926;-74
2021/08/16 14:37:05;;;;;;;8.82;3.05;;;17.30;99.90;;;;;;4976187;28;20573;-76
2021/08/16 14:39:33;;;;;;;5.40;3.13;;;17.20;99.90;;;;;;4976852;28;20208;-74
2021/08/16 14:42:01;;;;;;;8.30;3.40;;;17.30;99.90;;;;;;4967993;28;20320;-77
2021/08/16 14:44:30;;;;;;;10.50;3.85;;;17.30;99.90;;;;;;4983393;28;20262;-76
2021/08/16 14:46:57;;;;;;;5.77;2.97;;;17.30;99.90;;;;;;4972463;28;20240;-77
2021/08/16 14:49:25;;;;;;;6.45;3.53;;;17.40;99.90;;;;;;4981412;28;20884;-75
2021/08/16 14:51:53;;;;;;;7.27;2.90;;;17.60;99.90;;;;;;4975742;28;20264;-75
2021/08/16 14:54:20;;;;;;;17.10;3.77;;;17.70;99.90;;;;;;4973687;28;20489;-76
2021/08/16 14:56:47;;;;;;;7.03;2.83;;;17.70;99.90;;;;;;4967846;28;20480;-76
2021/08/16 14:59:14;;;;;;;7.37;2.53;;;18.00;99.90;;;;;;4972817;28;20461;-77
2021/08/16 15:01:41;;;;;;;7.30;3.13;;;18.20;99.90;;;;;;4972662;28;20433;-76
2021/08/16 15:04:09;;;;;;;6.50;2.60;;;18.20;99.90;;;;;;4969077;28;20448;-76
2021/08/16 15:06:37;;;;;;;9.47;3.13;;;18.20;99.90;;;;;;4973634;28;20474;-77
2021/08/16 15:09:05;;;;;;;6.57;3.00;;;18.40;99.90;;;;;;4972471;28;20456;-79
2021/08/16 15:11:32;;;;;;;8.43;3.17;;;18.70;99.90;;;;;;4973973;28;21062;-78
2021/08/16 15:13:59;;;;;;;6.47;3.37;;;19.00;99.90;;;;;;4970443;28;20475;-75
2021/08/16 15:16:26;;;;;;;6.20;3.30;;;19.20;99.90;;;;;;4975357;28;20513;-77
2021/08/16 15:18:54;;;;;;;7.97;2.17;;;19.20;99.90;;;;;;4974627;28;20458;-76
2021/08/16 15:21:22;;;;;;;7.87;3.23;;;19.30;99.90;;;;;;4975111;28;20442;-77
2021/08/16 15:23:53;;;;;;;9.37;2.50;;;19.50;99.90;;;;;;4978052;28;20952;-75
2021/08/16 15:26:21;;;;;;;5.70;2.40;;;19.70;99.90;;;;;;4965210;28;20495;-76
2021/08/16 15:28:52;;;;;;;5.10;2.13;;;19.70;96.80;;;;;;4975533;28;20431;-78
2021/08/16 15:31:19;;;;;;;5.50;2.33;;;19.60;95.10;;;;;;4973155;28;20813;-78
2021/08/16 15:33:47;;;;;;;7.57;2.40;;;19.60;97.00;;;;;;4975750;28;21001;-74
2021/08/16 15:36:14;;;;;;;12.43;2.97;;;19.50;99.30;;;;;;4976613;28;20635;-76
2021/08/16 15:38:41;;;;;;;4.70;2.13;;;19.50;98.90;;;;;;4977977;28;20474;-74
2021/08/16 15:41:10;;;;;;;13.07;2.40;;;19.80;99.40;;;;;;4972568;28;20448;-75
2021/08/16 15:43:37;;;;;;;14.40;3.47;;;19.70;98.00;;;;;;4974309;28;20796;-76
2021/08/16 15:46:04;;;;;;;6.13;2.00;;;19.50;97.60;;;;;;4967788;28;20498;-79
2021/08/16 15:48:32;;;;;;;4.93;2.47;;;19.40;97.90;;;;;;4974656;28;20445;-77
2021/08/16 15:51:00;;;;;;;5.17;2.20;;;19.00;99.90;;;;;;4973230;28;20466;-77
2021/08/16 15:53:27;;;;;;;3.77;1.80;;;18.50;99.90;;;;;;4975792;28;20500;-76
2021/08/16 15:55:56;;;;;;;7.43;2.20;;;18.30;99.90;;;;;;4965109;28;20469;-74
2021/08/16 15:58:25;;;;;;;3.43;2.33;;;17.90;99.90;;;;;;4978339;28;20512;-75
2021/08/16 16:00:52;;;;;;;5.70;1.70;;;17.80;99.90;;;;;;4974721;28;20463;-75
2021/08/16 16:03:19;;;;;;;4.83;2.20;;;17.70;99.90;;;;;;4978089;28;20459;-74
2021/08/16 16:05:46;;;;;;;4.38;1.50;;;17.60;99.90;;;;;;4973391;28;20452;-74
2021/08/16 16:08:13;;;;;;;4.75;2.13;;;17.50;99.90;;;;;;4976667;28;20233;-75
2021/08/16 16:10:42;;;;;;;5.28;2.25;;;17.20;99.90;;;;;;4978070;28;20206;-75
2021/08/16 16:13:09;;;;;;;7.23;2.23;;;17.20;99.90;;;;;;4973012;28;20619;-76
2021/08/16 16:15:38;;;;;;;3.47;1.45;;;17.10;99.90;;;;;;4975546;28;20484;-74
2021/08/16 16:18:06;;;;;;;2.67;1.25;;;16.80;99.90;;;;;;4981576;28;20258;-75
2021/08/16 16:20:34;;;;;;;4.70;2.20;;;16.70;99.90;;;;;;4972041;28;20212;-74
2021/08/16 16:23:03;;;;;;;7.43;2.30;;;16.60;99.90;;;;;;4978358;28;20203;-77
2021/08/16 16:25:30;;;;;;;7.72;1.90;;;16.50;99.90;;;;;;4967575;28;20279;-76
2021/08/16 16:27:59;;;;;;;7.97;2.20;;;16.50;99.90;;;;;;4971781;28;20716;-78
2021/08/16 16:30:26;;;;;;;7.82;2.30;;;16.40;99.90;;;;;;4978583;28;20671;-77
2021/08/16 16:32:55;;;;;;;5.93;3.05;;;16.50;99.90;;;;;;4977489;28;20216;-75
2021/08/16 16:35:22;;;;;;;6.15;2.60;;;16.60;99.90;;;;;;4976451;28;20408;-77
2021/08/16 16:37:49;;;;;;;3.85;1.75;;;16.70;99.90;;;;;;4975780;28;20251;-73
2021/08/16 16:40:16;;;;;;;7.65;2.67;;;16.80;99.90;;;;;;4981766;28;20275;-75
2021/08/16 16:42:44;;;;;;;5.15;2.03;;;16.90;99.90;;;;;;4976618;28;20220;-76
2021/08/16 16:45:11;;;;;;;6.78;2.53;;;16.90;99.90;;;;;;4977241;28;20207;-76
2021/08/16 16:47:39;;;;;;;6.82;2.60;;;16.80;99.90;;;;;;4975429;28;20308;-75
2021/08/16 16:50:09;;;;;;;5.63;2.95;;;16.80;99.90;;;;;;4971648;28;20212;-76
2021/08/16 16:52:37;;;;;;;6.75;1.98;;;16.80;99.90;;;;;;4977483;28;20211;-77
2021/08/16 16:55:04;;;;;;;10.63;2.28;;;16.80;99.90;;;;;;4981510;28;20230;-75
2021/08/16 16:57:32;;;;;;;4.10;2.05;;;16.70;99.90;;;;;;4984278;28;20224;-76
2021/08/16 16:59:59;;;;;;;6.35;2.15;;;16.90;99.90;;;;;;4980711;28;20199;-74
2021/08/16 17:02:26;;;;;;;6.18;2.10;;;16.80;99.90;;;;;;4976612;28;20375;-75
2021/08/16 17:04:53;;;;;;;6.20;2.15;;;16.80;99.90;;;;;;4986133;28;20204;-71
2021/08/16 17:07:22;;;;;;;4.63;2.35;;;16.70;99.90;;;;;;4971184;28;20318;-73
2021/08/16 17:09:49;;;;;;;10.35;1.70;;;16.70;99.90;;;;;;4980101;28;20269;-73
2021/08/16 17:12:17;;;;;;;9.80;2.43;;;16.70;99.90;;;;;;4978931;28;20204;-75
2021/08/16 17:14:45;;;;;;;6.18;2.40;;;16.70;99.90;;;;;;4980130;28;20494;-73
2021/08/16 17:17:12;;;;;;;7.05;2.40;;;16.70;99.90;;;;;;4981501;28;20227;-76
2021/08/16 17:19:39;;;;;;;5.80;2.33;;;16.60;99.90;;;;;;4972318;28;20226;-73
2021/08/16 17:22:06;;;;;;;3.80;2.20;;;16.50;99.90;;;;;;4980834;28;20215;-72
2021/08/16 17:24:36;;;;;;;3.30;2.00;;;16.50;99.90;;;;;;4979090;28;20195;-72
2021/08/16 17:27:03;;;;;;;5.22;2.10;;;16.50;99.90;;;;;;4978584;28;20219;-77
2021/08/16 17:29:31;;;;;;;9.30;2.33;;;16.50;99.90;;;;;;4989950;28;20205;-73
2021/08/16 17:31:58;;;;;;;3.83;1.73;;;16.40;99.90;;;;;;4986458;28;20204;-75
2021/08/16 17:34:26;;;;;;;8.18;2.10;;;16.30;99.90;;;;;;4988318;28;20253;-72
2021/08/16 17:36:54;;;;;;;10.20;2.60;;;16.30;99.90;;;;;;4981919;28;20223;-72
2021/08/16 17:39:27;;;;;;;5.40;2.35;;;16.30;99.90;;;;;;4982932;28;20203;-74
2021/08/16 17:41:56;;;;;;;5.28;1.85;;;16.20;99.90;;;;;;4991205;28;20269;-75
2021/08/16 17:44:24;;;;;;;7.18;1.92;;;16.20;99.90;;;;;;4992577;28;20191;-75
2021/08/16 17:46:53;;;;;;;6.20;1.80;;;16.30;99.90;;;;;;4982949;28;20233;-74
2021/08/16 17:49:20;;;;;;;7.97;2.20;;;16.20;99.90;;;;;;4978893;28;20203;-76
2021/08/16 17:51:48;;;;;;;8.25;2.35;;;16.20;99.90;;;;;;4976991;28;20214;-74
2021/08/16 17:54:15;;;;;;;6.95;2.67;;;16.20;99.90;;;;;;4974612;28;20972;-77
2021/08/16 17:56:43;;;;;;;6.88;2.00;;;16.20;99.90;;;;;;4978441;28;20229;-75
2021/08/16 17:59:12;;;;;;;9.73;3.88;;;16.10;99.90;;;;;;4979284;28;20202;-75
2021/08/16 18:01:41;;;;;;;4.22;2.35;;;16.00;99.90;;;;;;4968487;28;20247;-72
2021/08/16 18:04:08;;;;;;;7.28;2.03;;;15.90;99.90;;;;;;4968537;28;20259;-71
2021/08/16 18:06:36;;;;;;;6.85;2.42;;;15.90;99.90;;;;;;4963771;28;20232;-71
2021/08/16 18:09:06;;;;;;;5.15;1.80;;;15.80;99.90;;;;;;4975175;28;20198;-73
2021/08/16 18:11:34;;;;;;;6.45;1.92;;;15.70;99.90;;;;;;4970932;28;20203;-76
2021/08/16 18:14:03;;;;;;;5.40;2.05;;;15.70;99.90;;;;;;4964850;28;20226;-74
2021/08/16 18:16:32;;;;;;;5.90;2.50;;;15.70;99.90;;;;;;4965763;28;20226;-76
2021/08/16 18:19:01;;;;;;;7.03;2.05;;;15.60;99.90;;;;;;4984380;28;20536;-74
2021/08/16 18:21:28;;;;;;;5.75;1.85;;;15.60;99.90;;;;;;4971664;28;20203;-75
2021/08/16 18:23:56;;;;;;;2.22;1.90;;;15.50;99.90;;;;;;4969893;28;20221;-70
2021/08/16 18:26:23;;;;;;;4.22;1.88;;;15.50;99.90;;;;;;4963160;28;20619;-74
2021/08/16 18:28:51;;;;;;;5.20;2.70;;;15.50;99.90;;;;;;4963659;28;20214;-76
2021/08/16 18:31:18;;;;;;;5.60;2.05;;;15.50;99.90;;;;;;4961964;28;20206;-77
2021/08/16 18:33:47;;;;;;;9.98;2.17;;;15.50;99.90;;;;;;4971437;28;20202;-75
2021/08/16 18:36:14;;;;;;;4.35;1.60;;;15.50;99.90;;;;;;4968314;28;20230;-75
2021/08/16 18:38:41;;;;;;;7.93;2.10;;;15.50;99.90;;;;;;4962216;28;20202;-73
2021/08/16 18:41:10;;;;;;;4.70;1.75;;;15.60;99.90;;;;;;4961565;28;20642;-75
2021/08/16 18:43:39;;;;;;;9.02;2.03;;;15.50;99.90;;;;;;4964109;28;20205;-75
2021/08/16 18:46:06;;;;;;;2.97;1.70;;;15.50;99.90;;;;;;4972126;28;20210;-76
2021/08/16 18:48:33;;;;;;;3.83;1.98;;;15.40;99.90;;;;;;4968021;28;20525;-73
2021/08/16 18:51:03;;;;;;;5.72;1.45;;;15.40;99.90;;;;;;4967812;28;20209;-75
2021/08/16 18:53:30;;;;;;;5.20;1.85;;;15.40;99.90;;;;;;4963243;28;20250;-77
2021/08/16 18:55:58;;;;;;;8.48;2.42;;;15.30;99.90;;;;;;4971869;28;20221;-76
2021/08/16 18:58:26;;;;;;;6.60;1.83;;;15.20;99.90;;;;;;4972732;28;20659;-77
2021/08/16 19:00:53;;;;;;;4.63;2.80;;;15.20;99.90;;;;;;4969827;28;20684;-75
2021/08/16 19:03:20;;;;;;;4.95;2.10;;;15.10;99.90;;;;;;4966931;28;20267;-77
2021/08/16 19:05:47;;;;;;;4.10;1.50;;;15.20;99.90;;;;;;4962050;28;20205;-74
2021/08/16 19:08:16;;;;;;;11.27;2.38;;;15.20;99.90;;;;;;4971605;28;20225;-76
2021/08/16 19:10:43;;;;;;;6.63;1.98;;;15.10;99.90;;;;;;4972581;28;20213;-75
2021/08/16 19:13:11;;;;;;;3.33;2.03;;;15.20;99.90;;;;;;4974462;28;20218;-76
2021/08/16 19:15:38;;;;;;;6.80;1.90;;;15.20;99.90;;;;;;4971289;28;20310;-74
2021/08/16 19:18:05;;;;;;;8.52;2.30;;;15.20;99.90;;;;;;4970100;28;20230;-75
2021/08/16 19:20:33;;;;;;;7.03;2.38;;;15.20;99.90;;;;;;4958349;28;20209;-74
2021/08/16 19:23:00;;;;;;;7.85;2.38;;;15.20;99.90;;;;;;4971110;28;20202;-76
2021/08/16 19:25:31;;;;;;;6.07;2.20;;;15.20;99.90;;;;;;4966454;28;20658;-73
2021/08/16 19:27:58;;;;;;;7.05;2.10;;;15.10;99.90;;;;;;4970462;28;20591;-74
2021/08/16 19:30:26;;;;;;;5.82;2.20;;;15.00;99.90;;;;;;4972118;28;20213;-75
2021/08/16 19:32:53;;;;;;;4.72;1.70;;;14.90;99.90;;;;;;4970644;28;20561;-77
2021/08/16 19:35:20;;;;;;;6.40;2.25;;;14.80;99.90;;;;;;4973441;28;20350;-75
2021/08/16 19:37:47;;;;;;;4.82;3.25;;;14.80;99.90;;;;;;4976095;28;20226;-74
2021/08/16 19:40:15;;;;;;;7.90;2.55;;;14.70;99.90;;;;;;4974332;28;20253;-74
2021/08/16 19:42:44;;;;;;;5.75;2.72;;;14.70;99.90;;;;;;4972275;28;20210;-73